Terminal Aerodrome Forecast
Issued by NWS Buffalo, NY

Home | Current Version | Previous Version | Text Only | Print | Product List | Glossary On
Versions: 1 2 3 4 5 6 7 8 9 10 11 12 13 14 15 16 17 18 19 20 21 22 23 24 25
000
FTUS41 KBUF 280541
TAFART
TAF
KART 280541Z 2806/0106 VRB03KT P6SM OVC090
     FM281500 16008KT P6SM BKN090
     FM010300 17014KT P6SM OVC030
     FM010400 17015KT P6SM VCSH OVC030=

USA.gov is the U.S. government's official web portal to all federal, state and local government web resources and services.